Velserdiep — PBLP — position and weather

sailwx.info

Track history (hours):
 
Tides and Currents Weather Stations Pressure Air Temp Water Temp Dewpoint Dewpoint Depression Visibility Wind Speed Wind Dir Waves Ship Positions

Velserdiep

Last reported at 2015-Jan-23 17:15 UTC. Time now 2015-Jan-30 20:09 UTC.
Position N 36°00' W 005°09'.

Length 120 m; draft 7.2 m.

Type: Cargo ship. MMSI: 244484000.

Date/timePositionNaut miles runAvg speedWind from/ knotsBaromVisibWave heightAir tempDewpointWater temp
2015-Jan-23 17:15N 36°00' W 005°09'1014.9
2015-Jan-23 16:33N 35°59' W 005°22'215 9.2
2015-Jan-22 17:10N 37°42' W 009°19'711.4
2015-Jan-22 16:33N 37°48' W 009°16'1111.4
2015-Jan-22 15:33N 37°59' W 009°11'1211.5
2015-Jan-22 14:33N 38°10' W 009°06'1111.5
2015-Jan-22 13:33N 38°21' W 009°01'10 9.8
2015-Jan-22 12:33N 38°30' W 008°56'3 0.3
2015-Jan-22 02:08N 38°31' W 008°53'0 0.0
2015-Jan-22 00:08N 38°31' W 008°53'0 0.0
2015-Jan-21 23:08N 38°31' W 008°53'0 0.0
2015-Jan-21 22:38N 38°31' W 008°53'0 0.0
2015-Jan-21 16:11N 38°31' W 008°53'0 0.0
2015-Jan-21 14:05N 38°31' W 008°53'0 0.0
2015-Jan-21 13:05N 38°31' W 008°53'0 0.0
2015-Jan-21 12:14N 38°31' W 008°53'0 0.0
2015-Jan-21 11:32N 38°31' W 008°53'0 0.0
2015-Jan-21 09:26N 38°31' W 008°53'0 0.0
2015-Jan-21 08:05N 38°31' W 008°53'0 0.0
2015-Jan-21 05:08N 38°31' W 008°53'0 0.0
2015-Jan-20 16:26N 38°31' W 008°53'0 0.0
2015-Jan-20 14:19N 38°31' W 008°53'0 0.0
2015-Jan-20 13:31N 38°31' W 008°53'0 0.0
2015-Jan-20 12:25N 38°31' W 008°53'0 0.0
2015-Jan-20 11:32N 38°31' W 008°53'7 6.7
2015-Jan-20 10:33N 38°26' W 008°59'5 4.8
2015-Jan-20 09:33N 38°22' W 009°00'6 5.8
2015-Jan-20 08:33N 38°16' W 009°02'5 5.2
2015-Jan-20 07:33N 38°11' W 009°03'10 9.8
2015-Jan-20 06:33N 38°01' W 009°05'9 9.4
2015-Jan-20 05:33N 37°52' W 009°07'1110.2
2015-Jan-20 04:31N 37°42' W 009°10'1110.5
2015-Jan-20 03:28N 37°31' W 009°13'  
Track history (hours):
 
Tides and Currents Weather Stations Pressure Air Temp Water Temp Dewpoint Dewpoint Depression Visibility Wind Speed Wind Dir Waves Ship Positions

Velserdiep

Last reported at 2015-Jan-23 17:15 UTC. Time now 2015-Jan-30 20:09 UTC.
Position N 36°00' W 005°09'.

Length 120 m; draft 7.2 m.

Type: Cargo ship. MMSI: 244484000.

Date/timePositionNaut miles runAvg speedWind from/ knotsBaromVisibWave heightAir tempDewpointWater temp
2015-Jan-23 17:15N 36°00' W 005°09'1014.9
2015-Jan-23 16:33N 35°59' W 005°22'215 9.2
2015-Jan-22 17:10N 37°42' W 009°19'711.4
2015-Jan-22 16:33N 37°48' W 009°16'1111.4
2015-Jan-22 15:33N 37°59' W 009°11'1211.5
2015-Jan-22 14:33N 38°10' W 009°06'1111.5
2015-Jan-22 13:33N 38°21' W 009°01'10 9.8
2015-Jan-22 12:33N 38°30' W 008°56'3 0.3
2015-Jan-22 02:08N 38°31' W 008°53'0 0.0
2015-Jan-22 00:08N 38°31' W 008°53'0 0.0
2015-Jan-21 23:08N 38°31' W 008°53'0 0.0
2015-Jan-21 22:38N 38°31' W 008°53'0 0.0
2015-Jan-21 16:11N 38°31' W 008°53'0 0.0
2015-Jan-21 14:05N 38°31' W 008°53'0 0.0
2015-Jan-21 13:05N 38°31' W 008°53'0 0.0
2015-Jan-21 12:14N 38°31' W 008°53'0 0.0
2015-Jan-21 11:32N 38°31' W 008°53'0 0.0
2015-Jan-21 09:26N 38°31' W 008°53'0 0.0
2015-Jan-21 08:05N 38°31' W 008°53'0 0.0
2015-Jan-21 05:08N 38°31' W 008°53'0 0.0
2015-Jan-20 16:26N 38°31' W 008°53'0 0.0
2015-Jan-20 14:19N 38°31' W 008°53'0 0.0
2015-Jan-20 13:31N 38°31' W 008°53'0 0.0
2015-Jan-20 12:25N 38°31' W 008°53'0 0.0
2015-Jan-20 11:32N 38°31' W 008°53'7 6.7
2015-Jan-20 10:33N 38°26' W 008°59'5 4.8
2015-Jan-20 09:33N 38°22' W 009°00'6 5.8
2015-Jan-20 08:33N 38°16' W 009°02'5 5.2
2015-Jan-20 07:33N 38°11' W 009°03'10 9.8
2015-Jan-20 06:33N 38°01' W 009°05'9 9.4
2015-Jan-20 05:33N 37°52' W 009°07'1110.2
2015-Jan-20 04:31N 37°42' W 009°10'1110.5
2015-Jan-20 03:28N 37°31' W 009°13'  

Dump ship's entire track history